createdAt,value
2018-09-11T00:00:35.100Z,70.89
2018-09-11T00:03:04.124Z,70.41
2018-09-11T00:05:33.878Z,71.19
2018-09-11T00:08:03.520Z,71.30
2018-09-11T00:10:32.671Z,71.07
2018-09-11T00:13:01.816Z,71.39
2018-09-11T00:15:30.935Z,71.79
2018-09-11T00:17:59.993Z,70.84
2018-09-11T00:20:28.979Z,71.17
2018-09-11T00:22:57.969Z,71.39
2018-09-11T00:25:26.961Z,71.59
2018-09-11T00:27:55.935Z,71.68
2018-09-11T00:30:25.054Z,71.06
2018-09-11T00:32:54.055Z,71.46
2018-09-11T00:35:23.164Z,71.94
2018-09-11T00:37:52.117Z,72.22
2018-09-11T00:40:21.082Z,71.92
2018-09-11T00:42:50.107Z,72.15
2018-09-11T00:45:19.142Z,72.26
2018-09-11T00:47:48.131Z,72.50
2018-09-11T00:50:17.142Z,71.91
2018-09-11T00:52:46.226Z,71.68
2018-09-11T00:55:15.193Z,72.63
2018-09-11T00:57:44.366Z,72.53
2018-09-11T01:00:13.349Z,71.61
2018-09-11T01:02:42.936Z,71.71
2018-09-11T01:05:11.955Z,71.51
2018-09-11T01:07:41.493Z,72.18
2018-09-11T01:10:10.994Z,72.38
2018-09-11T01:12:42.931Z,72.78
2018-09-11T01:15:11.898Z,72.24
2018-09-11T01:17:40.923Z,73.32
2018-09-11T01:20:10.236Z,72.58
2018-09-11T01:22:39.487Z,73.74
2018-09-11T01:25:08.668Z,73.20
2018-09-11T01:27:37.788Z,72.78
2018-09-11T01:30:06.995Z,72.88
2018-09-11T01:32:36.067Z,72.35
2018-09-11T01:35:05.076Z,73.85
2018-09-11T01:37:34.239Z,73.74
2018-09-11T01:40:03.189Z,73.36
2018-09-11T01:42:32.309Z,74.50
2018-09-11T01:45:01.517Z,73.54
2018-09-11T01:47:30.566Z,73.81
2018-09-11T01:49:59.692Z,74.33
2018-09-11T01:52:28.708Z,73.24
2018-09-11T01:54:57.860Z,74.05
2018-09-11T01:57:26.934Z,74.02
2018-09-11T01:59:56.082Z,73.63
2018-09-11T02:02:25.101Z,73.72
2018-09-11T02:04:54.666Z,73.88
2018-09-11T02:07:23.683Z,73.39
2018-09-11T02:09:52.592Z,73.38
2018-09-11T02:12:21.612Z,73.66
2018-09-11T02:14:50.578Z,73.78
2018-09-11T02:17:19.585Z,74.01
2018-09-11T02:19:48.611Z,73.72
2018-09-11T02:22:17.561Z,73.79
2018-09-11T02:24:46.590Z,72.53
2018-09-11T02:27:15.549Z,73.51
2018-09-11T02:29:44.508Z,73.45
2018-09-11T02:32:13.533Z,73.24
2018-09-11T02:34:42.631Z,73.74
2018-09-11T02:37:11.774Z,74.55
2018-09-11T02:39:40.714Z,73.68
2018-09-11T02:42:09.693Z,73.70
2018-09-11T02:44:38.706Z,74.58
2018-09-11T02:47:07.854Z,74.04
2018-09-11T02:49:37.002Z,74.11
2018-09-11T02:52:06.358Z,74.95
2018-09-11T02:54:35.450Z,73.71
2018-09-11T02:57:04.747Z,74.16
2018-09-11T02:59:33.878Z,74.56
2018-09-11T03:02:02.911Z,74.47
2018-09-11T03:04:32.011Z,73.55
2018-09-11T03:07:01.143Z,73.92
2018-09-11T03:09:30.273Z,73.53
2018-09-11T03:11:59.547Z,73.83
2018-09-11T03:14:28.534Z,74.00
2018-09-11T03:16:57.573Z,74.73
2018-09-11T03:19:26.710Z,74.32
2018-09-11T03:21:55.760Z,73.98
2018-09-11T03:24:24.701Z,74.62
2018-09-11T03:26:53.670Z,73.74
2018-09-11T03:29:22.640Z,74.92
2018-09-11T03:31:51.784Z,74.62
2018-09-11T03:34:20.855Z,74.35
2018-09-11T03:36:50.099Z,75.21
2018-09-11T03:39:19.202Z,74.47
2018-09-11T03:41:48.165Z,74.61
2018-09-11T03:44:17.166Z,74.08
2018-09-11T03:46:46.099Z,74.74
2018-09-11T03:49:15.174Z,74.50
2018-09-11T03:51:44.184Z,74.30
2018-09-11T03:54:13.150Z,74.58
2018-09-11T03:56:42.155Z,74.98
2018-09-11T03:59:11.274Z,75.79
2018-09-11T04:01:40.251Z,76.12
2018-09-11T04:04:09.245Z,75.64
2018-09-11T04:06:38.255Z,75.44
2018-09-11T04:09:09.965Z,75.76
2018-09-11T04:11:39.015Z,75.39
2018-09-11T04:14:07.968Z,75.36
2018-09-11T04:16:37.162Z,75.70
2018-09-11T04:19:06.171Z,75.93
2018-09-11T04:21:35.152Z,75.67
2018-09-11T04:24:04.248Z,76.17
2018-09-11T04:26:33.214Z,75.82
2018-09-11T04:29:02.351Z,75.90
2018-09-11T04:31:31.301Z,75.90
2018-09-11T04:34:00.294Z,75.65
2018-09-11T04:36:29.379Z,76.33
2018-09-11T04:38:58.264Z,76.31
2018-09-11T04:41:27.235Z,75.75
2018-09-11T04:43:56.193Z,76.08
2018-09-11T04:46:25.166Z,75.80
2018-09-11T04:48:54.148Z,75.56
2018-09-11T04:51:23.148Z,75.96
2018-09-11T04:53:52.091Z,76.15
2018-09-11T04:56:21.064Z,75.29
2018-09-11T04:58:50.425Z,76.04
2018-09-11T05:01:19.379Z,75.90
2018-09-11T05:03:48.461Z,76.38
2018-09-11T05:06:17.451Z,77.35
2018-09-11T05:08:46.400Z,76.89
2018-09-11T05:11:15.378Z,76.71
2018-09-11T05:13:44.413Z,77.04
2018-09-11T05:16:13.433Z,77.34
2018-09-11T05:18:42.402Z,77.48
2018-09-11T05:21:11.563Z,77.47
2018-09-11T05:23:40.487Z,77.79
2018-09-11T05:26:09.491Z,77.51
2018-09-11T05:28:38.451Z,76.95
2018-09-11T05:31:07.440Z,77.32
2018-09-11T05:33:36.491Z,78.27
2018-09-11T05:36:05.474Z,78.08
2018-09-11T05:38:34.423Z,77.79
2018-09-11T05:41:03.368Z,78.13
2018-09-11T05:43:32.295Z,77.98
2018-09-11T05:46:01.557Z,77.44
2018-09-11T05:48:30.693Z,77.11
2018-09-11T05:50:59.675Z,77.92
2018-09-11T05:53:28.643Z,77.89
2018-09-11T05:55:57.597Z,78.92
2018-09-11T05:58:26.644Z,78.03
2018-09-11T06:00:55.559Z,78.05
2018-09-11T06:03:24.620Z,78.57
2018-09-11T06:05:53.582Z,78.76
2018-09-11T06:08:22.568Z,78.05
2018-09-11T06:10:51.512Z,77.85
2018-09-11T06:13:20.533Z,77.58
2018-09-11T06:15:49.586Z,77.31
2018-09-11T06:18:18.648Z,78.17
2018-09-11T06:20:47.635Z,76.97
2018-09-11T06:23:16.650Z,78.29
2018-09-11T06:25:45.670Z,78.54
2018-09-11T06:28:14.779Z,77.90
2018-09-11T06:30:43.765Z,77.38
2018-09-11T06:33:12.693Z,77.15
2018-09-11T06:35:42.075Z,77.34
2018-09-11T06:38:11.020Z,77.36
2018-09-11T06:40:40.019Z,78.15
2018-09-11T06:43:09.055Z,77.42
2018-09-11T06:45:38.006Z,77.23
2018-09-11T06:48:07.005Z,77.25
2018-09-11T06:50:35.991Z,78.21
2018-09-11T06:53:05.012Z,78.28
2018-09-11T06:55:34.027Z,77.88
2018-09-11T06:58:03.030Z,78.28
2018-09-11T07:00:32.149Z,77.86
2018-09-11T07:03:01.102Z,77.89
2018-09-11T07:05:30.183Z,78.49
2018-09-11T07:07:59.152Z,77.40
2018-09-11T07:10:28.121Z,77.95
2018-09-11T07:12:57.072Z,77.84
2018-09-11T07:15:26.516Z,77.49
2018-09-11T07:17:55.534Z,77.31
2018-09-11T07:20:24.773Z,78.17
2018-09-11T07:22:53.817Z,77.48
2018-09-11T07:25:23.318Z,77.71
2018-09-11T07:27:52.320Z,77.29
2018-09-11T07:30:21.348Z,77.39
2018-09-11T07:32:50.299Z,77.43
2018-09-11T07:35:19.236Z,77.26
2018-09-11T07:37:48.257Z,77.46
2018-09-11T07:40:17.304Z,76.92
2018-09-11T07:42:46.293Z,77.17
2018-09-11T07:45:15.275Z,77.81
2018-09-11T07:47:44.288Z,77.17
2018-09-11T07:50:13.337Z,76.80
2018-09-11T07:52:42.374Z,77.38
2018-09-11T07:55:11.284Z,77.60
2018-09-11T07:57:40.308Z,76.57
2018-09-11T08:00:09.248Z,76.98
2018-09-11T08:02:38.244Z,77.10
2018-09-11T08:05:07.909Z,76.95
2018-09-11T08:07:37.720Z,76.58
2018-09-11T08:10:06.740Z,76.82
2018-09-11T08:12:35.709Z,76.69
2018-09-11T08:15:04.831Z,76.32
2018-09-11T08:17:33.893Z,75.81
2018-09-11T08:20:02.954Z,76.57
2018-09-11T08:22:31.921Z,75.50
2018-09-11T08:25:00.918Z,75.66
2018-09-11T08:27:29.917Z,75.60
2018-09-11T08:29:58.984Z,74.76
2018-09-11T08:32:27.966Z,74.80
2018-09-11T08:34:56.942Z,74.38
2018-09-11T08:37:25.906Z,74.54
2018-09-11T08:39:55.023Z,74.21
2018-09-11T08:42:23.963Z,73.52
2018-09-11T08:44:52.967Z,73.95
2018-09-11T08:47:21.949Z,72.54
2018-09-11T08:49:50.922Z,72.77
2018-09-11T08:52:19.869Z,71.78
2018-09-11T08:54:49.223Z,70.54
2018-09-11T08:57:18.182Z,71.73
2018-09-11T08:59:47.130Z,70.87
2018-09-11T09:02:16.095Z,70.23
2018-09-11T09:04:45.119Z,70.01
2018-09-11T09:07:14.067Z,70.21
2018-09-11T09:09:43.418Z,70.43
2018-09-11T09:12:12.401Z,69.09
2018-09-11T09:14:41.380Z,70.03
2018-09-11T09:17:10.354Z,69.46
2018-09-11T09:19:39.341Z,70.07
2018-09-11T09:22:08.271Z,68.77
2018-09-11T09:24:37.281Z,68.72
2018-09-11T09:27:06.239Z,68.12
2018-09-11T09:29:35.400Z,67.91
2018-09-11T09:32:04.360Z,68.04
2018-09-11T09:34:33.373Z,67.39
2018-09-11T09:37:02.446Z,68.48
2018-09-11T09:39:31.288Z,66.67
2018-09-11T09:42:00.323Z,66.18
2018-09-11T09:44:29.265Z,66.44
2018-09-11T09:46:58.236Z,65.33
2018-09-11T09:49:27.190Z,65.83
2018-09-11T09:51:56.141Z,65.19
2018-09-11T09:54:25.166Z,64.97
2018-09-11T09:56:54.171Z,65.81
2018-09-11T09:59:23.139Z,65.31
2018-09-11T10:01:57.373Z,65.25
2018-09-11T10:04:26.371Z,64.47
2018-09-11T10:06:55.306Z,64.56
2018-09-11T10:09:24.281Z,64.24
2018-09-11T10:11:53.299Z,64.83
2018-09-11T10:14:22.211Z,64.62
2018-09-11T10:16:51.162Z,64.79
2018-09-11T10:19:20.335Z,63.89
2018-09-11T10:21:49.382Z,64.27
2018-09-11T10:24:18.306Z,63.98
2018-09-11T10:26:47.315Z,64.60
2018-09-11T10:29:16.446Z,63.70
2018-09-11T10:31:45.580Z,63.55
2018-09-11T10:34:14.691Z,63.40
2018-09-11T10:36:43.646Z,63.52
2018-09-11T10:39:12.615Z,63.46
2018-09-11T10:41:41.490Z,62.99
2018-09-11T10:44:10.555Z,63.20
2018-09-11T10:46:39.528Z,62.21
2018-09-11T10:49:08.669Z,61.44
2018-09-11T10:51:37.907Z,61.94
2018-09-11T10:54:06.863Z,61.06
2018-09-11T10:56:35.970Z,59.97
2018-09-11T10:59:05.117Z,60.54
2018-09-11T11:01:34.089Z,60.85
2018-09-11T11:04:03.050Z,61.17
2018-09-11T11:06:32.040Z,61.27
2018-09-11T11:09:01.346Z,61.45
2018-09-11T11:11:30.356Z,61.23
2018-09-11T11:13:59.517Z,60.95
2018-09-11T11:16:28.530Z,60.55
2018-09-11T11:18:57.472Z,59.12
2018-09-11T11:21:26.397Z,59.76
2018-09-11T11:23:55.358Z,60.16
2018-09-11T11:26:24.431Z,58.69
2018-09-11T11:28:53.427Z,59.43
2018-09-11T11:31:22.450Z,60.44
2018-09-11T11:33:51.395Z,59.86
2018-09-11T11:36:20.547Z,59.35
2018-09-11T11:38:49.512Z,58.06
2018-09-11T11:41:19.182Z,58.80
2018-09-11T11:43:48.191Z,58.82
2018-09-11T11:46:17.209Z,58.06
2018-09-11T11:48:46.305Z,59.52
2018-09-11T11:51:15.711Z,58.71
2018-09-11T11:53:44.740Z,58.60
2018-09-11T11:56:13.700Z,58.20
2018-09-11T11:58:42.704Z,57.75
2018-09-11T12:01:11.668Z,57.85
2018-09-11T12:03:40.664Z,56.18
2018-09-11T12:06:09.620Z,57.64
2018-09-11T12:08:38.654Z,57.52
2018-09-11T12:11:07.588Z,57.74
2018-09-11T12:13:36.540Z,57.10
2018-09-11T12:16:05.545Z,55.79
2018-09-11T12:18:34.549Z,56.91
2018-09-11T12:21:03.500Z,55.40
2018-09-11T12:23:32.686Z,56.09
2018-09-11T12:26:01.704Z,56.20
2018-09-11T12:28:30.650Z,55.63
2018-09-11T12:31:00.445Z,54.91
2018-09-11T12:33:29.408Z,54.97
2018-09-11T12:35:58.369Z,55.30
2018-09-11T12:38:27.397Z,55.44
2018-09-11T12:40:56.333Z,56.78
2018-09-11T12:43:25.312Z,55.71
2018-09-11T12:45:54.325Z,55.65
2018-09-11T12:48:23.656Z,55.98
2018-09-11T12:50:52.298Z,55.31
2018-09-11T12:53:21.372Z,55.11
2018-09-11T12:55:50.367Z,55.55
2018-09-11T12:58:19.484Z,56.09
2018-09-11T13:00:48.529Z,56.49
2018-09-11T13:03:17.521Z,55.53
2018-09-11T13:05:46.503Z,56.14
2018-09-11T13:08:15.515Z,55.57
2018-09-11T13:10:44.534Z,55.84
2018-09-11T13:13:13.864Z,56.57
2018-09-11T13:15:42.816Z,56.64
2018-09-11T13:18:11.862Z,56.21
2018-09-11T13:20:40.831Z,55.75
2018-09-11T13:23:09.814Z,56.46
2018-09-11T13:25:38.797Z,56.69
2018-09-11T13:28:07.741Z,56.42
2018-09-11T13:30:36.734Z,57.05
2018-09-11T13:33:06.278Z,57.31
2018-09-11T13:35:35.208Z,56.71
2018-09-11T13:38:04.174Z,57.95
2018-09-11T13:40:33.220Z,58.51
2018-09-11T13:43:02.162Z,58.14
2018-09-11T13:45:31.135Z,58.58
2018-09-11T13:48:00.077Z,57.63
2018-09-11T13:50:29.057Z,57.82
2018-09-11T13:52:58.057Z,58.82
2018-09-11T13:55:27.128Z,57.92
2018-09-11T13:57:56.241Z,58.70
2018-09-11T14:00:25.178Z,59.41
2018-09-11T14:02:54.332Z,58.88
2018-09-11T14:05:23.236Z,59.63
2018-09-11T14:07:52.213Z,59.73
2018-09-11T14:10:21.571Z,60.06
2018-09-11T14:12:50.524Z,59.18
2018-09-11T14:15:19.539Z,59.80
2018-09-11T14:17:48.837Z,60.01
2018-09-11T14:20:17.840Z,59.23
2018-09-11T14:22:50.097Z,59.81
2018-09-11T14:25:29.018Z,59.90
2018-09-11T14:27:57.959Z,59.68
2018-09-11T14:30:26.929Z,60.61
2018-09-11T14:32:55.928Z,60.27
2018-09-11T14:35:24.922Z,59.63
2018-09-11T14:37:54.071Z,61.07
2018-09-11T14:40:22.979Z,61.03
2018-09-11T14:42:51.964Z,60.80
2018-09-11T14:45:20.962Z,60.58
2018-09-11T14:47:49.916Z,60.30
2018-09-11T14:50:18.849Z,60.61
2018-09-11T14:52:47.856Z,60.50
2018-09-11T14:55:16.886Z,60.58
2018-09-11T14:57:46.069Z,61.54
2018-09-11T15:00:15.033Z,60.79
2018-09-11T15:02:44.008Z,61.69
2018-09-11T15:05:13.093Z,61.78
2018-09-11T15:07:42.014Z,61.19
2018-09-11T15:10:11.379Z,61.82
2018-09-11T15:12:40.322Z,61.97
2018-09-11T15:15:09.301Z,62.12
2018-09-11T15:17:38.257Z,62.20
2018-09-11T15:20:07.785Z,61.64
2018-09-11T15:22:36.867Z,62.18
2018-09-11T15:25:05.768Z,61.77
2018-09-11T15:27:34.811Z,62.01
2018-09-11T15:30:03.997Z,61.16
2018-09-11T15:32:32.854Z,62.56
2018-09-11T15:35:02.156Z,62.18
2018-09-11T15:37:31.200Z,62.67
2018-09-11T15:40:00.188Z,62.16
2018-09-11T15:42:29.250Z,61.87
2018-09-11T15:44:58.533Z,63.01
2018-09-11T15:47:27.481Z,62.12
2018-09-11T15:49:56.424Z,62.28
2018-09-11T15:52:25.418Z,61.98
2018-09-11T15:54:54.421Z,62.69
2018-09-11T15:57:27.170Z,62.18
2018-09-11T15:59:56.404Z,62.50
2018-09-11T16:02:25.349Z,62.74
2018-09-11T16:04:54.330Z,62.84
2018-09-11T16:07:23.382Z,62.78
2018-09-11T16:09:52.390Z,62.50
2018-09-11T16:12:21.543Z,63.04
2018-09-11T16:14:50.800Z,62.99
2018-09-11T16:17:19.755Z,63.05
2018-09-11T16:19:48.798Z,63.07
2018-09-11T16:22:17.785Z,62.29
2018-09-11T16:24:46.783Z,62.48
2018-09-11T16:27:15.730Z,62.69
2018-09-11T16:29:44.814Z,63.24
2018-09-11T16:32:13.797Z,62.23
2018-09-11T16:34:42.761Z,62.88
2018-09-11T16:37:11.728Z,62.34
2018-09-11T16:39:40.786Z,63.15
2018-09-11T16:42:09.759Z,63.20
2018-09-11T16:44:38.738Z,62.58
2018-09-11T16:47:07.856Z,63.17
2018-09-11T16:49:37.171Z,62.80
2018-09-11T16:52:06.391Z,63.59
2018-09-11T16:54:35.374Z,63.74
2018-09-11T16:57:04.394Z,63.74
2018-09-11T16:59:33.419Z,63.57
2018-09-11T17:02:02.470Z,63.93
2018-09-11T17:04:31.452Z,63.76
2018-09-11T17:07:00.447Z,63.50
2018-09-11T17:09:29.469Z,64.34
2018-09-11T17:11:59.457Z,64.62
2018-09-11T17:14:28.521Z,64.77
2018-09-11T17:16:57.554Z,64.75
2018-09-11T17:19:26.558Z,64.78
2018-09-11T17:21:55.970Z,64.58
2018-09-11T17:24:25.060Z,65.37
2018-09-11T17:26:54.072Z,64.49
2018-09-11T17:29:23.061Z,64.62
2018-09-11T17:31:52.075Z,64.81
2018-09-11T17:34:21.092Z,64.73
2018-09-11T17:36:50.460Z,64.83
2018-09-11T17:39:19.398Z,65.69
2018-09-11T17:41:48.418Z,65.04
2018-09-11T17:44:17.448Z,65.32
2018-09-11T17:46:46.440Z,65.64
2018-09-11T17:49:15.539Z,65.33
2018-09-11T17:51:44.496Z,65.70
2018-09-11T17:54:13.518Z,66.13
2018-09-11T17:56:42.556Z,66.28
2018-09-11T17:59:11.578Z,66.23
2018-09-11T18:01:40.601Z,66.87
2018-09-11T18:04:09.622Z,66.81
2018-09-11T18:06:38.621Z,66.66
2018-09-11T18:09:08.372Z,67.03
2018-09-11T18:11:37.407Z,67.23
2018-09-11T18:14:06.497Z,66.15
2018-09-11T18:16:35.512Z,66.16
2018-09-11T18:19:04.555Z,66.36
2018-09-11T18:21:33.555Z,67.05
2018-09-11T18:24:02.659Z,67.09
2018-09-11T18:26:31.755Z,67.53
2018-09-11T18:29:00.728Z,67.66
2018-09-11T18:31:29.774Z,67.54
2018-09-11T18:33:58.772Z,67.47
2018-09-11T18:36:28.563Z,67.61
2018-09-11T18:38:57.576Z,66.41
2018-09-11T18:41:26.602Z,67.57
2018-09-11T18:43:55.758Z,67.99
2018-09-11T18:46:24.722Z,68.42
2018-09-11T18:48:54.061Z,67.93
2018-09-11T18:51:23.116Z,68.06
2018-09-11T18:53:52.082Z,69.29
2018-09-11T18:56:21.334Z,69.66
2018-09-11T18:58:50.317Z,69.55
2018-09-11T19:01:19.311Z,69.81
2018-09-11T19:03:48.343Z,69.13
2018-09-11T19:06:17.426Z,70.10
2018-09-11T19:08:46.487Z,69.12
2018-09-11T19:11:15.808Z,70.19
2018-09-11T19:13:44.841Z,69.23
2018-09-11T19:16:13.861Z,69.21
2018-09-11T19:18:43.101Z,69.46
2018-09-11T19:21:12.125Z,69.78
2018-09-11T19:23:41.137Z,69.83
2018-09-11T19:26:10.216Z,69.56
2018-09-11T19:28:39.311Z,69.16
2018-09-11T19:31:08.338Z,69.30
2018-09-11T19:33:37.278Z,70.11
2018-09-11T19:36:06.359Z,70.22
2018-09-11T19:38:35.749Z,70.27
2018-09-11T19:41:04.749Z,69.42
2018-09-11T19:43:33.761Z,70.70
2018-09-11T19:46:02.687Z,70.84
2018-09-11T19:48:31.707Z,70.64
2018-09-11T19:51:01.626Z,70.67
2018-09-11T19:53:30.901Z,70.48
2018-09-11T19:55:59.971Z,70.37
2018-09-11T19:58:29.048Z,70.82
2018-09-11T20:00:58.061Z,70.83
2018-09-11T20:03:27.071Z,70.66
2018-09-11T20:05:56.052Z,70.11
2018-09-11T20:08:25.061Z,70.73
2018-09-11T20:10:54.200Z,70.40
2018-09-11T20:13:23.225Z,70.43
2018-09-11T20:15:52.274Z,71.51
2018-09-11T20:18:21.304Z,71.89
2018-09-11T20:20:50.315Z,72.07
2018-09-11T20:23:19.316Z,70.84
2018-09-11T20:25:48.373Z,70.63
2018-09-11T20:28:17.348Z,71.78
2018-09-11T20:30:46.356Z,71.82
2018-09-11T20:33:15.442Z,71.57
2018-09-11T20:35:44.438Z,71.48
2018-09-11T20:38:13.434Z,71.41
2018-09-11T20:40:42.493Z,71.27
2018-09-11T20:43:12.783Z,71.86
2018-09-11T20:45:41.774Z,71.45
2018-09-11T20:48:10.749Z,72.37
2018-09-11T20:50:39.750Z,72.13
2018-09-11T20:53:08.779Z,72.24
2018-09-11T20:55:37.757Z,72.64
2018-09-11T20:58:06.746Z,72.11
2018-09-11T21:00:36.091Z,72.39
2018-09-11T21:03:05.078Z,71.64
2018-09-11T21:05:34.044Z,71.87
2018-09-11T21:08:03.037Z,72.59
2018-09-11T21:10:32.014Z,72.31
2018-09-11T21:13:01.079Z,71.66
2018-09-11T21:15:30.057Z,72.19
2018-09-11T21:17:58.993Z,72.43
2018-09-11T21:20:28.014Z,71.98
2018-09-11T21:22:57.025Z,71.77
2018-09-11T21:25:25.987Z,71.68
2018-09-11T21:27:54.886Z,72.06
2018-09-11T21:30:23.909Z,71.98
2018-09-11T21:32:53.017Z,72.41
2018-09-11T21:35:22.032Z,71.73
2018-09-11T21:37:51.309Z,72.30
2018-09-11T21:40:20.364Z,72.57
2018-09-11T21:42:49.360Z,72.52
2018-09-11T21:45:18.340Z,72.03
2018-09-11T21:47:47.377Z,72.28
2018-09-11T21:50:16.483Z,72.22
2018-09-11T21:52:45.455Z,72.01
2018-09-11T21:55:14.462Z,72.82
2018-09-11T21:57:43.534Z,72.24
2018-09-11T22:00:13.382Z,72.55
2018-09-11T22:02:42.395Z,73.59
2018-09-11T22:05:11.622Z,73.71
2018-09-11T22:07:40.604Z,74.00
2018-09-11T22:10:10.873Z,73.54
2018-09-11T22:12:40.135Z,74.06
2018-09-11T22:15:10.403Z,73.87
2018-09-11T22:17:39.620Z,73.88
2018-09-11T22:20:09.005Z,73.77
2018-09-11T22:22:38.055Z,74.18
2018-09-11T22:27:56.243Z,75.05
2018-09-11T22:30:30.159Z,74.86
2018-09-11T22:33:00.028Z,74.42
2018-09-11T22:35:29.004Z,73.76
2018-09-11T22:37:59.067Z,74.31
2018-09-11T22:40:28.085Z,74.32
2018-09-11T22:42:57.102Z,75.15
2018-09-11T22:45:26.085Z,74.29
2018-09-11T22:47:55.216Z,74.77
2018-09-11T22:50:24.210Z,75.28
2018-09-11T22:52:53.612Z,75.50
2018-09-11T22:55:22.599Z,74.79
2018-09-11T22:57:51.680Z,75.36
2018-09-11T23:00:20.693Z,75.28
2018-09-11T23:02:49.715Z,75.24
2018-09-11T23:05:18.734Z,75.16
2018-09-11T23:07:47.693Z,74.61
2018-09-11T23:10:16.667Z,75.37
2018-09-11T23:12:45.733Z,75.26
2018-09-11T23:15:14.716Z,75.67
2018-09-11T23:17:43.668Z,75.99
2018-09-11T23:20:12.696Z,75.54
2018-09-11T23:22:41.673Z,75.79
2018-09-11T23:25:10.618Z,75.07
2018-09-11T23:27:40.216Z,75.55
2018-09-11T23:30:09.150Z,76.19
2018-09-11T23:32:38.071Z,75.57
2018-09-11T23:35:07.058Z,75.28
2018-09-11T23:37:36.156Z,75.66
2018-09-11T23:40:05.383Z,75.76
2018-09-11T23:42:34.390Z,75.35
2018-09-11T23:45:03.312Z,75.33
2018-09-11T23:47:32.294Z,76.21
2018-09-11T23:50:01.283Z,76.06
2018-09-11T23:52:30.274Z,75.79
2018-09-11T23:54:59.298Z,74.90
2018-09-11T23:57:28.226Z,75.11
2018-09-11T23:59:57.493Z,76.05
